Time,TemperatureF,DewpointF,PressureIn,WindDirection,WindDirectionDegrees,WindSpeedMPH,WindSpeedGustMPH,Humidity,HourlyPrecipIn,Conditions,Clouds,dailyrainin,SolarRadiationWatts/m^2,SoftwareType,DateUTC
2013-07-07 00:01:00,72.0,61.0,-100.00,SSE,157,2.0,6.0,69,0.00,,,0.00,0.000000,,2013-07-07 05:01:00,
2013-07-07 00:21:00,71.0,62.0,-100.00,SW,222,2.0,6.0,72,0.00,,,0.00,0.000000,,2013-07-07 05:21:00,
2013-07-07 00:31:00,71.0,62.0,-100.00,SW,222,2.0,6.0,72,0.00,,,0.00,0.000000,,2013-07-07 05:31:00,
2013-07-07 00:41:00,71.0,62.0,-100.00,SW,222,2.0,6.0,72,0.00,,,0.00,0.000000,,2013-07-07 05:41:00,
2013-07-07 00:51:00,71.0,62.0,-100.00,SW,222,2.0,6.0,72,0.00,,,0.00,0.000000,,2013-07-07 05:51:00,
2013-07-07 01:01:00,71.0,62.0,-100.00,SW,222,2.0,6.0,72,0.00,,,0.00,0.000000,,2013-07-07 06:01:00,
2013-07-07 01:02:00,72.0,62.0,-100.00,SW,226,5.0,9.0,70,0.00,,,0.00,0.000000,,2013-07-07 06:02:00,
2013-07-07 01:22:00,72.0,62.0,-100.00,SW,226,5.0,9.0,70,0.00,,,0.00,0.000000,,2013-07-07 06:22:00,
2013-07-07 01:32:00,72.0,62.0,-100.00,SW,226,5.0,9.0,70,0.00,,,0.00,0.000000,,2013-07-07 06:32:00,
2013-07-07 01:43:00,72.0,62.0,-100.00,SW,226,5.0,9.0,70,0.00,,,0.00,0.000000,,2013-07-07 06:43:00,
2013-07-07 01:52:00,72.0,62.0,-100.00,SW,226,5.0,9.0,70,0.00,,,0.00,0.000000,,2013-07-07 06:52:00,
2013-07-07 02:02:00,70.0,64.0,-100.00,SW,231,3.0,10.0,81,0.00,,,0.00,0.000000,,2013-07-07 07:02:00,
2013-07-07 02:22:00,70.0,64.0,-100.00,SW,231,3.0,10.0,81,0.00,,,0.00,0.000000,,2013-07-07 07:22:00,
2013-07-07 02:33:00,70.0,64.0,-100.00,SW,231,3.0,10.0,81,0.00,,,0.00,0.000000,,2013-07-07 07:33:00,
2013-07-07 02:44:00,70.0,64.0,-100.00,SW,231,3.0,10.0,81,0.00,,,0.00,0.000000,,2013-07-07 07:44:00,
2013-07-07 02:53:00,70.0,64.0,-100.00,SW,231,3.0,10.0,81,0.00,,,0.00,0.000000,,2013-07-07 07:53:00,
2013-07-07 03:02:00,68.0,64.0,-100.00,WSW,256,3.0,10.0,88,0.01,,,0.01,0.000000,,2013-07-07 08:02:00,
2013-07-07 03:22:00,68.0,64.0,-100.00,WSW,256,3.0,10.0,88,0.01,,,0.01,0.000000,,2013-07-07 08:22:00,
2013-07-07 03:34:00,68.0,64.0,-100.00,WSW,256,3.0,10.0,88,0.01,,,0.01,0.000000,,2013-07-07 08:34:00,
2013-07-07 03:44:00,68.0,64.0,-100.00,WSW,256,3.0,10.0,88,0.01,,,0.01,0.000000,,2013-07-07 08:44:00,
2013-07-07 03:53:00,68.0,64.0,-100.00,WSW,256,3.0,10.0,88,0.01,,,0.01,0.000000,,2013-07-07 08:53:00,
2013-07-07 04:02:00,68.0,65.0,-100.00,NE,53,1.0,5.0,91,0.00,,,0.01,0.000000,,2013-07-07 09:02:00,
2013-07-07 04:22:00,68.0,65.0,-100.00,NE,53,1.0,5.0,91,0.00,,,0.01,0.000000,,2013-07-07 09:22:00,
2013-07-07 04:34:00,68.0,65.0,-100.00,NE,53,1.0,5.0,91,0.00,,,0.01,0.000000,,2013-07-07 09:34:00,
2013-07-07 04:43:00,68.0,65.0,-100.00,NE,53,1.0,5.0,91,0.00,,,0.01,0.000000,,2013-07-07 09:43:00,
2013-07-07 04:53:00,68.0,65.0,-100.00,NE,53,1.0,5.0,91,0.00,,,0.01,0.000000,,2013-07-07 09:53:00,
2013-07-07 05:02:00,66.0,65.0,-100.00,NNE,30,0.0,3.0,96,0.00,,,0.01,0.000000,,2013-07-07 10:02:00,
2013-07-07 05:23:00,66.0,65.0,-100.00,NNE,30,0.0,3.0,96,0.00,,,0.01,0.000000,,2013-07-07 10:23:00,
2013-07-07 05:32:00,66.0,65.0,-100.00,NNE,30,0.0,3.0,96,0.00,,,0.01,0.000000,,2013-07-07 10:32:00,
2013-07-07 05:43:00,66.0,65.0,-100.00,NNE,30,0.0,3.0,96,0.00,,,0.01,0.000000,,2013-07-07 10:43:00,
2013-07-07 05:52:00,66.0,65.0,-100.00,NNE,30,0.0,3.0,96,0.00,,,0.01,0.000000,,2013-07-07 10:52:00,
2013-07-07 06:02:00,66.0,66.0,-100.00,North,5,1.0,5.0,99,0.06,,,0.07,1.000000,,2013-07-07 11:02:00,
2013-07-07 06:23:00,66.0,66.0,-100.00,North,5,1.0,5.0,99,0.06,,,0.07,1.000000,,2013-07-07 11:23:00,
2013-07-07 06:34:00,66.0,66.0,-100.00,North,5,1.0,5.0,99,0.06,,,0.07,1.000000,,2013-07-07 11:34:00,
2013-07-07 06:43:00,66.0,66.0,-100.00,North,5,1.0,5.0,99,0.06,,,0.07,1.000000,,2013-07-07 11:43:00,
2013-07-07 06:53:00,66.0,66.0,-100.00,North,5,1.0,5.0,99,0.06,,,0.07,1.000000,,2013-07-07 11:53:00,
2013-07-07 07:02:00,66.0,66.0,-100.00,NE,41,3.0,6.0,99,0.09,,,0.16,2.000000,,2013-07-07 12:02:00,
2013-07-07 07:22:00,66.0,66.0,-100.00,NE,41,3.0,6.0,99,0.09,,,0.16,2.000000,,2013-07-07 12:22:00,
2013-07-07 07:34:00,66.0,66.0,-100.00,NE,41,3.0,6.0,99,0.09,,,0.16,2.000000,,2013-07-07 12:34:00,
2013-07-07 07:43:00,66.0,66.0,-100.00,NE,41,3.0,6.0,99,0.09,,,0.16,2.000000,,2013-07-07 12:43:00,
2013-07-07 07:52:00,66.0,66.0,-100.00,NE,41,3.0,6.0,99,0.09,,,0.16,2.000000,,2013-07-07 12:52:00,
2013-07-07 08:02:00,65.0,65.0,-100.00,South,182,3.0,9.0,99,0.56,,,0.72,1.000000,,2013-07-07 13:02:00,
2013-07-07 08:22:00,65.0,65.0,-100.00,South,182,3.0,9.0,99,0.56,,,0.72,1.000000,,2013-07-07 13:22:00,
2013-07-07 08:34:00,65.0,65.0,-100.00,South,182,3.0,9.0,99,0.56,,,0.72,1.000000,,2013-07-07 13:34:00,
2013-07-07 08:43:00,65.0,65.0,-100.00,South,182,3.0,9.0,99,0.56,,,0.72,1.000000,,2013-07-07 13:43:00,
2013-07-07 08:52:00,65.0,65.0,-100.00,South,182,3.0,9.0,99,0.56,,,0.72,1.000000,,2013-07-07 13:52:00,
2013-07-07 09:02:00,65.0,65.0,-100.00,SSE,157,2.0,6.0,99,0.30,,,1.02,10.000000,,2013-07-07 14:02:00,
2013-07-07 09:22:00,65.0,65.0,-100.00,SSE,157,2.0,6.0,99,0.30,,,1.02,10.000000,,2013-07-07 14:22:00,
2013-07-07 09:34:00,65.0,65.0,-100.00,SSE,157,2.0,6.0,99,0.30,,,1.02,10.000000,,2013-07-07 14:34:00,
2013-07-07 09:43:00,65.0,65.0,-100.00,SSE,157,2.0,6.0,99,0.30,,,1.02,10.000000,,2013-07-07 14:43:00,
2013-07-07 09:53:00,65.0,65.0,-100.00,SSE,157,2.0,6.0,99,0.30,,,1.02,10.000000,,2013-07-07 14:53:00,
2013-07-07 10:22:00,67.0,66.0,-100.00,SW,222,3.0,12.0,98,0.07,,,1.09,57.000000,,2013-07-07 15:22:00,
2013-07-07 10:34:00,67.0,66.0,-100.00,SW,222,3.0,12.0,98,0.07,,,1.09,57.000000,,2013-07-07 15:34:00,
2013-07-07 10:43:00,67.0,66.0,-100.00,SW,222,3.0,12.0,98,0.07,,,1.09,57.000000,,2013-07-07 15:43:00,
2013-07-07 10:52:00,67.0,66.0,-100.00,SW,222,3.0,12.0,98,0.07,,,1.09,57.000000,,2013-07-07 15:52:00,
2013-07-07 11:01:00,67.0,66.0,-100.00,SW,222,3.0,12.0,98,0.07,,,1.09,57.000000,,2013-07-07 16:01:00,
2013-07-07 11:02:00,72.0,68.0,-100.00,SW,216,6.0,11.0,87,0.00,,,1.09,310.000000,,2013-07-07 16:02:00,
2013-07-07 11:23:00,72.0,68.0,-100.00,SW,216,6.0,11.0,87,0.00,,,1.09,310.000000,,2013-07-07 16:23:00,
2013-07-07 11:34:00,72.0,68.0,-100.00,SW,216,6.0,11.0,87,0.00,,,1.09,310.000000,,2013-07-07 16:34:00,
2013-07-07 11:43:00,72.0,68.0,-100.00,SW,216,6.0,11.0,87,0.00,,,1.09,310.000000,,2013-07-07 16:43:00,
2013-07-07 11:53:00,72.0,68.0,-100.00,SW,216,6.0,11.0,87,0.00,,,1.09,310.000000,,2013-07-07 16:53:00,
2013-07-07 12:02:00,79.0,70.0,-100.00,SW,230,5.0,11.0,75,0.00,,,1.09,600.000000,,2013-07-07 17:02:00,
2013-07-07 12:22:00,79.0,70.0,-100.00,SW,230,5.0,11.0,75,0.00,,,1.09,600.000000,,2013-07-07 17:22:00,
2013-07-07 12:34:00,79.0,70.0,-100.00,SW,230,5.0,11.0,75,0.00,,,1.09,600.000000,,2013-07-07 17:34:00,
2013-07-07 12:43:00,79.0,70.0,-100.00,SW,230,5.0,11.0,75,0.00,,,1.09,600.000000,,2013-07-07 17:43:00,
2013-07-07 12:53:00,79.0,70.0,-100.00,SW,230,5.0,11.0,75,0.00,,,1.09,600.000000,,2013-07-07 17:53:00,
2013-07-07 13:33:00,83.0,69.0,-100.00,SW,226,4.0,10.0,62,0.00,,,1.09,641.000000,,2013-07-07 18:33:00,
2013-07-07 13:43:00,83.0,69.0,-100.00,SW,226,4.0,10.0,62,0.00,,,1.09,641.000000,,2013-07-07 18:43:00,
2013-07-07 13:53:00,83.0,69.0,-100.00,SW,226,4.0,10.0,62,0.00,,,1.09,641.000000,,2013-07-07 18:53:00,
2013-07-07 14:01:00,83.0,69.0,-100.00,SW,226,4.0,10.0,62,0.00,,,1.09,641.000000,,2013-07-07 19:01:00,
2013-07-07 14:02:00,82.0,67.0,-100.00,WSW,252,5.0,9.0,60,0.00,,,1.09,532.000000,,2013-07-07 19:02:00,
2013-07-07 14:22:00,82.0,67.0,-100.00,WSW,252,5.0,9.0,60,0.00,,,1.09,532.000000,,2013-07-07 19:22:00,
2013-07-07 14:34:00,82.0,67.0,-100.00,WSW,252,5.0,9.0,60,0.00,,,1.09,532.000000,,2013-07-07 19:34:00,
2013-07-07 14:43:00,82.0,67.0,-100.00,WSW,252,5.0,9.0,60,0.00,,,1.09,532.000000,,2013-07-07 19:43:00,
2013-07-07 14:54:00,82.0,67.0,-100.00,WSW,252,5.0,9.0,60,0.00,,,1.09,532.000000,,2013-07-07 19:54:00,
2013-07-07 15:02:00,84.0,68.0,-100.00,West,267,3.0,8.0,59,0.00,,,1.09,430.000000,,2013-07-07 20:02:00,
2013-07-07 15:22:00,84.0,68.0,-100.00,West,267,3.0,8.0,59,0.00,,,1.09,430.000000,,2013-07-07 20:22:00,
2013-07-07 15:34:00,84.0,68.0,-100.00,West,267,3.0,8.0,59,0.00,,,1.09,430.000000,,2013-07-07 20:34:00,
2013-07-07 15:42:00,84.0,68.0,-100.00,West,267,3.0,8.0,59,0.00,,,1.09,430.000000,,2013-07-07 20:42:00,
2013-07-07 15:53:00,84.0,68.0,-100.00,West,267,3.0,8.0,59,0.00,,,1.09,430.000000,,2013-07-07 20:53:00,
2013-07-07 16:22:00,83.0,68.0,-100.00,SW,235,5.0,14.0,60,0.00,,,1.09,405.000000,,2013-07-07 21:22:00,
2013-07-07 16:34:00,83.0,68.0,-100.00,SW,235,5.0,14.0,60,0.00,,,1.09,405.000000,,2013-07-07 21:34:00,
2013-07-07 16:44:00,83.0,68.0,-100.00,SW,235,5.0,14.0,60,0.00,,,1.09,405.000000,,2013-07-07 21:44:00,
2013-07-07 16:53:00,83.0,68.0,-100.00,SW,235,5.0,14.0,60,0.00,,,1.09,405.000000,,2013-07-07 21:53:00,
2013-07-07 17:01:00,83.0,68.0,-100.00,SW,235,5.0,14.0,60,0.00,,,1.09,405.000000,,2013-07-07 22:01:00,
2013-07-07 17:02:00,82.0,68.0,-100.00,West,260,4.0,10.0,63,0.00,,,1.09,410.000000,,2013-07-07 22:02:00,
2013-07-07 17:22:00,82.0,68.0,-100.00,West,260,4.0,10.0,63,0.00,,,1.09,410.000000,,2013-07-07 22:22:00,
2013-07-07 17:34:00,82.0,68.0,-100.00,West,260,4.0,10.0,63,0.00,,,1.09,410.000000,,2013-07-07 22:34:00,
2013-07-07 17:44:00,82.0,68.0,-100.00,West,260,4.0,10.0,63,0.00,,,1.09,410.000000,,2013-07-07 22:44:00,
2013-07-07 17:54:00,82.0,68.0,-100.00,West,260,4.0,10.0,63,0.00,,,1.09,410.000000,,2013-07-07 22:54:00,
2013-07-07 18:22:00,80.0,69.0,-100.00,WSW,257,4.0,9.0,69,0.00,,,1.09,235.000000,,2013-07-07 23:22:00,
2013-07-07 18:33:00,80.0,69.0,-100.00,WSW,257,4.0,9.0,69,0.00,,,1.09,235.000000,,2013-07-07 23:33:00,
2013-07-07 18:43:00,80.0,69.0,-100.00,WSW,257,4.0,9.0,69,0.00,,,1.09,235.000000,,2013-07-07 23:43:00,
2013-07-07 18:53:00,80.0,69.0,-100.00,WSW,257,4.0,9.0,69,0.00,,,1.09,235.000000,,2013-07-07 23:53:00,
2013-07-07 19:01:00,80.0,69.0,-100.00,WSW,257,4.0,9.0,69,0.00,,,1.09,235.000000,,2013-07-08 00:01:00,
2013-07-07 19:22:00,78.0,70.0,-100.00,ESE,103,2.0,4.0,77,0.00,,,1.09,102.000000,,2013-07-08 00:22:00,
2013-07-07 19:33:00,78.0,70.0,-100.00,ESE,103,2.0,4.0,77,0.00,,,1.09,102.000000,,2013-07-08 00:33:00,
2013-07-07 19:43:00,78.0,70.0,-100.00,ESE,103,2.0,4.0,77,0.00,,,1.09,102.000000,,2013-07-08 00:43:00,
2013-07-07 19:53:00,78.0,70.0,-100.00,ESE,103,2.0,4.0,77,0.00,,,1.09,102.000000,,2013-07-08 00:53:00,
2013-07-07 20:01:00,78.0,70.0,-100.00,ESE,103,2.0,4.0,77,0.00,,,1.09,102.000000,,2013-07-08 01:01:00,
2013-07-07 20:02:00,75.0,70.0,-100.00,SSE,151,0.0,2.0,85,0.00,,,1.09,47.000000,,2013-07-08 01:02:00,
2013-07-07 20:22:00,75.0,70.0,-100.00,SSE,151,0.0,2.0,85,0.00,,,1.09,47.000000,,2013-07-08 01:22:00,
2013-07-07 20:32:00,75.0,70.0,-100.00,SSE,151,0.0,2.0,85,0.00,,,1.09,47.000000,,2013-07-08 01:32:00,
2013-07-07 20:43:00,75.0,70.0,-100.00,SSE,151,0.0,2.0,85,0.00,,,1.09,47.000000,,2013-07-08 01:43:00,
2013-07-07 20:53:00,75.0,70.0,-100.00,SSE,151,0.0,2.0,85,0.00,,,1.09,47.000000,,2013-07-08 01:53:00,
2013-07-07 21:33:00,73.0,70.0,-100.00,SSE,151,1.0,2.0,91,0.00,,,1.09,8.000000,,2013-07-08 02:33:00,
2013-07-07 21:43:00,73.0,70.0,-100.00,SSE,151,1.0,2.0,91,0.00,,,1.09,8.000000,,2013-07-08 02:43:00,
2013-07-07 21:52:00,73.0,70.0,-100.00,SSE,151,1.0,2.0,91,0.00,,,1.09,8.000000,,2013-07-08 02:52:00,
2013-07-07 22:01:00,73.0,70.0,-100.00,SSE,151,1.0,2.0,91,0.00,,,1.09,8.000000,,2013-07-08 03:01:00,
2013-07-07 22:02:00,72.0,69.0,-100.00,SSE,158,1.0,3.0,91,0.00,,,1.09,0.000000,,2013-07-08 03:02:00,
2013-07-07 22:23:00,72.0,69.0,-100.00,SSE,158,1.0,3.0,91,0.00,,,1.09,0.000000,,2013-07-08 03:23:00,
2013-07-07 22:34:00,72.0,69.0,-100.00,SSE,158,1.0,3.0,91,0.00,,,1.09,0.000000,,2013-07-08 03:34:00,
2013-07-07 22:42:00,72.0,69.0,-100.00,SSE,158,1.0,3.0,91,0.00,,,1.09,0.000000,,2013-07-08 03:42:00,
2013-07-07 22:52:00,72.0,69.0,-100.00,SSE,158,1.0,3.0,91,0.00,,,1.09,0.000000,,2013-07-08 03:52:00,
2013-07-07 23:22:00,71.0,70.0,-100.00,SSE,164,2.0,4.0,97,0.00,,,1.09,0.000000,,2013-07-08 04:22:00,
2013-07-07 23:33:00,71.0,70.0,-100.00,SSE,164,2.0,4.0,97,0.00,,,1.09,0.000000,,2013-07-08 04:33:00,
2013-07-07 23:42:00,71.0,70.0,-100.00,SSE,164,2.0,4.0,97,0.00,,,1.09,0.000000,,2013-07-08 04:42:00,
2013-07-07 23:53:00,71.0,70.0,-100.00,SSE,164,2.0,4.0,97,0.00,,,1.09,0.000000,,2013-07-08 04:53:00,